Time;durP1;ratioP1;P1;durP2;ratioP2;P2;SDS_P1;SDS_P2;PMS_P1;PMS_P2;Temp;Humidity;BMP_temperature;BMP_pressure;BME280_temperature;BME280_humidity;BME280_pressure;Samples;Min_cycle;Max_cycle;Signal;HPM_P1;HPM_P2
2023/06/21 00:00:40;;;;;;;8.27;7.00;;;;;;;24.31;60.10;99422.09;4956280;28;20532;-82
2023/06/21 00:03:07;;;;;;;7.25;6.43;;;;;;;24.31;60.02;99435.53;4956908;28;20089;-82
2023/06/21 00:05:34;;;;;;;7.80;7.00;;;;;;;24.31;60.37;99438.22;4973108;28;20061;-81
2023/06/21 00:08:00;;;;;;;6.93;6.30;;;;;;;24.28;60.47;99417.06;4973828;28;20093;-81
2023/06/21 00:10:28;;;;;;;7.32;6.63;;;;;;;24.28;60.09;99426.97;4973968;28;20063;-81
2023/06/21 00:12:55;;;;;;;10.05;7.07;;;;;;;24.25;60.42;99427.38;4995019;23;20050;-78
2023/06/21 00:15:22;;;;;;;8.15;6.78;;;;;;;24.21;60.44;99426.91;4975572;28;20062;-79
2023/06/21 00:17:49;;;;;;;8.23;7.32;;;;;;;24.18;60.19;99428.09;4974926;28;20076;-79
2023/06/21 00:20:17;;;;;;;8.48;7.53;;;;;;;24.14;60.61;99434.06;4992262;28;20054;-79
2023/06/21 00:22:47;;;;;;;8.38;6.45;;;;;;;24.08;60.44;99439.09;4992286;28;20058;-79
2023/06/21 00:25:14;;;;;;;7.70;6.82;;;;;;;24.06;60.71;99434.91;4979771;28;20090;-78
2023/06/21 00:27:42;;;;;;;7.97;7.18;;;;;;;24.02;60.85;99433.63;4972644;28;20505;-78
2023/06/21 00:30:09;;;;;;;7.90;7.10;;;;;;;23.99;60.91;99439.38;4972907;28;20055;-78
2023/06/21 00:32:37;;;;;;;7.95;6.57;;;;;;;23.95;61.10;99444.28;4972673;28;20061;-79
2023/06/21 00:35:05;;;;;;;10.77;7.47;;;;;;;23.94;61.38;99450.69;4980052;28;20517;-78
2023/06/21 00:37:31;;;;;;;8.15;7.35;;;;;;;23.90;61.56;99449.38;4992171;28;20070;-79
2023/06/21 00:39:58;;;;;;;7.80;6.97;;;;;;;23.86;61.33;99456.97;4992160;28;20050;-79
2023/06/21 00:42:24;;;;;;;9.13;7.47;;;;;;;23.85;61.49;99460.66;4992173;28;20054;-79
2023/06/21 00:44:50;;;;;;;8.38;7.40;;;;;;;23.84;61.67;99452.78;4987715;28;20050;-79
2023/06/21 00:47:18;;;;;;;8.70;7.90;;;;;;;23.82;61.82;99450.28;4972183;28;20064;-79
2023/06/21 00:49:44;;;;;;;9.50;8.52;;;;;;;23.79;61.86;99448.81;4955532;28;20441;-79
2023/06/21 00:52:11;;;;;;;8.20;7.40;;;;;;;23.79;61.66;99448.81;4955411;28;20054;-79
2023/06/21 00:54:40;;;;;;;8.90;8.00;;;;;;;23.76;61.95;99446.47;4955377;28;20090;-78
2023/06/21 00:57:07;;;;;;;10.55;7.97;;;;;;;23.74;61.96;99444.97;4955083;28;20058;-78
2023/06/21 00:59:33;;;;;;;9.23;7.18;;;;;;;23.72;61.82;99447.00;4972839;28;20054;-79
2023/06/21 01:02:02;;;;;;;8.15;7.38;;;;;;;23.68;61.60;99466.19;4991574;28;20054;-79
2023/06/21 01:04:31;;;;;;;9.15;7.45;;;;;;;23.64;61.99;99470.25;4991584;28;20065;-79
2023/06/21 01:07:04;;;;;;;9.23;8.27;;;;;;;23.61;61.71;99464.38;4974192;28;20141;-79
2023/06/21 01:09:52;;;;;;;10.32;8.30;;;;;;;23.52;62.29;99472.50;4991868;28;20050;-79
2023/06/21 01:12:45;;;;;;;9.20;7.93;;;;;;;23.49;62.66;99472.03;4972326;28;20070;-78
2023/06/21 01:15:23;;;;;;;8.90;7.43;;;;;;;23.48;62.27;99473.91;4971997;28;20505;-79
2023/06/21 01:17:52;;;;;;;8.80;7.80;;;;;;;23.45;62.26;99470.72;4971980;28;20069;-79
2023/06/21 01:20:25;;;;;;;8.73;7.85;;;;;;;23.40;62.26;99477.47;4972400;28;20058;-79
2023/06/21 01:22:51;;;;;;;9.63;7.65;;;;;;;23.40;61.79;99479.34;4991101;28;20058;-79
2023/06/21 01:25:30;;;;;;;8.38;7.15;;;;;;;23.34;62.73;99480.88;4991726;28;20141;-79
2023/06/21 01:28:20;;;;;;;8.45;6.80;;;;;;;23.29;62.77;99485.94;4991480;28;20161;-78
2023/06/21 01:30:48;;;;;;;10.02;7.57;;;;;;;23.32;62.11;99488.22;4989534;28;20058;-79
2023/06/21 01:33:19;;;;;;;10.45;7.10;;;;;;;23.29;62.29;99486.75;4973637;28;20054;-78
2023/06/21 01:35:45;;;;;;;8.13;7.32;;;;;;;23.26;62.08;99500.53;4991405;28;20058;-79
2023/06/21 01:38:12;;;;;;;9.63;7.35;;;;;;;23.23;62.23;99498.22;4991236;28;20050;-78
2023/06/21 01:40:38;;;;;;;8.93;7.13;;;;;;;23.20;62.07;99487.81;4991349;28;20046;-79
2023/06/21 01:43:08;;;;;;;14.15;8.40;;;;;;;23.17;62.91;99494.38;4974536;28;20050;-79
2023/06/21 01:45:34;;;;;;;8.93;8.02;;;;;;;23.17;62.52;99491.69;4986486;28;20137;-78
2023/06/21 01:48:02;;;;;;;9.10;7.80;;;;;;;23.16;62.51;99497.22;4971588;28;20556;-78
2023/06/21 01:50:30;;;;;;;11.82;8.25;;;;;;;23.15;62.67;99487.50;4954940;28;20141;-79
2023/06/21 01:52:58;;;;;;;12.57;8.50;;;;;;;23.14;62.33;99493.91;4985395;28;20082;-79
2023/06/21 01:55:25;;;;;;;9.57;7.88;;;;;;;23.13;62.55;99489.53;4991235;28;20425;-79
2023/06/21 01:57:52;;;;;;;9.13;8.23;;;;;;;23.12;62.76;99498.59;4975041;28;20054;-79
2023/06/21 02:00:21;;;;;;;9.52;8.52;;;;;;;23.10;62.37;99497.94;4994711;28;20058;-79
2023/06/21 02:03:03;;;;;;;10.52;8.30;;;;;;;23.02;63.00;99507.72;4984860;28;20505;-78
2023/06/21 02:05:31;;;;;;;9.20;8.15;;;;;;;23.04;62.60;99505.69;4975322;28;20062;-78
2023/06/21 02:08:00;;;;;;;11.95;8.50;;;;;;;23.02;62.34;99501.50;4975380;28;20058;-79
2023/06/21 02:10:27;;;;;;;10.73;7.82;;;;;;;23.01;62.42;99506.03;4976781;28;20098;-79
2023/06/21 02:12:54;;;;;;;9.32;7.22;;;;;;;23.00;62.69;99507.06;4974716;28;20057;-79
2023/06/21 02:15:20;;;;;;;11.65;8.20;;;;;;;22.99;62.46;99504.56;4975016;28;20536;-79
2023/06/21 02:17:48;;;;;;;11.07;8.40;;;;;;;22.99;62.66;99504.56;4975122;28;20058;-79
2023/06/21 02:20:16;;;;;;;8.80;7.55;;;;;;;22.99;62.25;99507.22;4975121;28;20537;-79
2023/06/21 02:22:43;;;;;;;8.95;8.05;;;;;;;22.99;62.32;99508.03;4975135;28;20051;-78
2023/06/21 02:25:11;;;;;;;9.40;8.40;;;;;;;22.97;62.45;99503.88;4974925;28;20058;-79
2023/06/21 02:27:38;;;;;;;11.45;8.80;;;;;;;22.97;62.52;99496.66;4974873;28;20421;-79
2023/06/21 02:30:06;;;;;;;16.38;8.90;;;;;;;22.96;62.45;99497.69;4977352;28;20059;-79
2023/06/21 02:32:33;;;;;;;9.38;8.27;;;;;;;22.94;62.60;99499.69;4994237;28;20492;-79
2023/06/21 02:35:00;;;;;;;12.85;9.23;;;;;;;22.92;62.60;99504.41;4994194;28;20054;-79
2023/06/21 02:37:28;;;;;;;12.90;9.98;;;;;;;22.91;62.43;99513.44;4994232;28;20073;-79
2023/06/21 02:39:55;;;;;;;11.82;8.45;;;;;;;22.89;62.58;99512.81;4994161;28;20050;-79
2023/06/21 02:42:22;;;;;;;11.25;9.45;;;;;;;22.88;62.81;99513.81;4975812;28;20062;-79
2023/06/21 02:44:48;;;;;;;11.15;10.02;;;;;;;22.87;62.78;99520.19;4957439;28;20062;-78
2023/06/21 02:47:15;;;;;;;11.57;10.23;;;;;;;22.85;62.80;99522.22;4974423;28;20061;-79
2023/06/21 02:49:41;;;;;;;13.68;10.88;;;;;;;22.84;62.73;99524.03;4974728;28;20061;-79
2023/06/21 02:52:08;;;;;;;12.15;10.35;;;;;;;22.82;62.84;99534.13;4987983;28;20058;-79
2023/06/21 02:54:34;;;;;;;12.10;10.57;;;;;;;22.82;63.12;99554.75;4993926;28;20058;-79
2023/06/21 02:57:00;;;;;;;12.00;10.68;;;;;;;22.82;63.04;99557.44;4993585;28;20420;-79
2023/06/21 02:59:28;;;;;;;12.13;10.75;;;;;;;22.81;63.55;99550.41;4993785;28;20583;-79
2023/06/21 03:01:55;;;;;;;11.82;10.60;;;;;;;22.79;63.64;99553.25;4984236;28;20054;-79
2023/06/21 03:04:25;;;;;;;14.23;11.35;;;;;;;22.80;64.06;99552.22;4974475;28;20065;-79
2023/06/21 03:06:51;;;;;;;11.77;10.57;;;;;;;22.81;63.80;99545.03;4974056;28;20497;-79
2023/06/21 03:09:17;;;;;;;11.82;10.52;;;;;;;22.81;63.79;99547.72;4973717;28;20070;-79
2023/06/21 03:11:45;;;;;;;11.38;10.13;;;;;;;22.83;63.66;99565.31;4978470;28;20443;-79
2023/06/21 03:14:11;;;;;;;10.68;9.57;;;;;;;22.83;63.78;99559.94;4984891;28;20421;-79
2023/06/21 03:16:40;;;;;;;10.73;9.13;;;;;;;22.84;63.60;99558.13;4984953;28;20064;-79
2023/06/21 03:19:08;;;;;;;12.82;9.45;;;;;;;22.84;63.56;99566.16;4993369;28;20054;-80
2023/06/21 03:21:34;;;;;;;12.77;10.02;;;;;;;22.84;63.53;99563.47;4992862;28;20054;-78
2023/06/21 03:24:02;;;;;;;11.52;10.27;;;;;;;22.82;63.47;99560.97;4974068;28;20422;-79
2023/06/21 03:26:29;;;;;;;12.70;10.65;;;;;;;22.82;63.32;99579.75;4974081;28;20546;-79
2023/06/21 03:28:57;;;;;;;13.30;11.27;;;;;;;22.82;63.39;99579.75;4973867;28;20081;-78
2023/06/21 03:31:23;;;;;;;16.17;12.07;;;;;;;22.81;63.54;99577.22;4974028;28;20085;-79
2023/06/21 03:33:50;;;;;;;13.95;11.20;;;;;;;22.81;63.32;99588.81;4989314;28;20061;-79
2023/06/21 03:36:16;;;;;;;15.98;12.00;;;;;;;22.81;63.42;99590.66;4993146;28;20362;-79
2023/06/21 03:38:43;;;;;;;13.13;11.05;;;;;;;22.80;63.48;99573.69;4975949;28;20469;-79
2023/06/21 03:41:09;;;;;;;11.77;10.45;;;;;;;22.80;63.14;99578.25;4993131;28;20066;-79
2023/06/21 03:43:35;;;;;;;11.05;9.85;;;;;;;22.78;62.94;99584.63;4981719;28;20055;-78
2023/06/21 03:46:02;;;;;;;12.95;10.95;;;;;;;22.78;63.31;99589.16;4973559;28;20062;-79
2023/06/21 03:48:29;;;;;;;10.80;9.30;;;;;;;22.74;62.81;99587.81;4973503;28;20058;-79
2023/06/21 03:50:55;;;;;;;11.65;10.15;;;;;;;22.73;63.25;99594.19;4973440;28;20051;-79
2023/06/21 03:53:22;;;;;;;11.05;9.85;;;;;;;22.70;63.06;99595.38;4980143;28;20046;-79
2023/06/21 03:55:48;;;;;;;11.75;9.90;;;;;;;22.68;63.31;99612.66;4992794;28;20086;-79
2023/06/21 03:58:14;;;;;;;11.23;10.15;;;;;;;22.65;63.17;99617.34;4992509;28;20050;-79
2023/06/21 04:00:41;;;;;;;11.27;10.10;;;;;;;22.63;63.52;99613.16;4975386;28;20065;-79
2023/06/21 04:03:07;;;;;;;11.90;10.60;;;;;;;22.61;63.67;99633.97;4990460;28;20065;-79
2023/06/21 04:05:34;;;;;;;11.27;10.15;;;;;;;22.60;63.81;99632.28;4973208;28;20090;-79
2023/06/21 04:08:00;;;;;;;12.07;10.55;;;;;;;22.58;63.76;99639.66;4973336;28;20058;-79
2023/06/21 04:10:26;;;;;;;12.75;9.88;;;;;;;22.56;63.59;99634.47;4973380;28;20061;-79
2023/06/21 04:12:53;;;;;;;14.40;10.98;;;;;;;22.55;63.78;99621.22;4973123;28;20092;-79
2023/06/21 04:15:21;;;;;;;14.27;10.98;;;;;;;22.55;64.15;99635.47;4973965;28;20058;-79
2023/06/21 04:17:49;;;;;;;12.18;10.95;;;;;;;22.56;63.97;99638.97;4972840;28;20520;-79
2023/06/21 04:20:15;;;;;;;11.13;9.98;;;;;;;22.56;63.79;99647.03;4972420;28;20074;-79
2023/06/21 04:22:42;;;;;;;11.52;10.40;;;;;;;22.57;64.06;99640.69;4973128;28;20057;-79
2023/06/21 04:25:09;;;;;;;15.02;10.20;;;;;;;22.57;64.18;99638.81;4985178;28;20096;-79
2023/06/21 04:27:38;;;;;;;10.63;9.55;;;;;;;22.57;63.94;99640.69;4974966;28;20493;-79
2023/06/21 04:30:06;;;;;;;11.93;10.70;;;;;;;22.59;64.08;99642.19;4992332;28;20054;-79
2023/06/21 04:32:32;;;;;;;10.63;9.60;;;;;;;22.62;64.10;99649.06;4992027;28;20070;-79
2023/06/21 04:34:59;;;;;;;12.32;11.05;;;;;;;22.62;63.94;99663.28;4983851;28;20141;-79
2023/06/21 04:37:26;;;;;;;10.90;9.75;;;;;;;22.64;63.63;99676.53;4972884;28;20085;-79
2023/06/21 04:39:53;;;;;;;12.65;10.05;;;;;;;22.62;63.71;99665.97;4972943;28;20055;-79
2023/06/21 04:42:37;;;;;;;11.55;10.13;;;;;;;22.62;63.70;99665.16;4972740;28;20066;-79
2023/06/21 04:45:04;;;;;;;12.02;10.65;;;;;;;22.61;63.63;99674.22;4986106;28;20050;-78
2023/06/21 04:47:31;;;;;;;11.32;10.23;;;;;;;22.60;63.95;99667.13;4992214;28;20133;-78
2023/06/21 04:49:57;;;;;;;13.70;10.77;;;;;;;22.58;63.75;99659.25;4992315;28;20054;-79
2023/06/21 04:52:47;;;;;;;14.75;10.43;;;;;;;22.60;63.90;99664.47;4991826;28;20089;-79
2023/06/21 04:55:17;;;;;;;13.13;10.13;;;;;;;22.60;63.85;99653.72;4979288;28;20059;-79
2023/06/21 04:57:46;;;;;;;12.48;10.95;;;;;;;22.59;63.65;99650.22;4972349;28;20505;-79
2023/06/21 05:00:14;;;;;;;11.60;10.50;;;;;;;22.60;63.86;99656.41;4972391;28;20062;-79
2023/06/21 05:02:40;;;;;;;11.13;10.02;;;;;;;22.60;63.58;99661.78;4972027;28;20063;-79
2023/06/21 05:05:07;;;;;;;11.93;9.73;;;;;;;22.59;63.64;99657.44;4980723;28;20050;-79
2023/06/21 05:07:34;;;;;;;12.13;10.43;;;;;;;22.58;63.92;99667.31;4991745;28;20058;-79
2023/06/21 05:10:01;;;;;;;11.50;10.30;;;;;;;22.57;63.56;99668.31;4991589;28;20054;-79
2023/06/21 05:12:27;;;;;;;11.82;10.63;;;;;;;22.58;63.75;99670.00;4974399;28;20095;-79
2023/06/21 05:14:54;;;;;;;13.45;10.98;;;;;;;22.58;63.79;99672.66;4988247;28;20061;-79
2023/06/21 05:17:20;;;;;;;15.60;10.77;;;;;;;22.58;63.53;99669.16;4972673;28;20307;-79
2023/06/21 05:19:46;;;;;;;12.38;11.07;;;;;;;22.58;63.56;99677.22;4972110;28;20082;-78
2023/06/21 05:22:13;;;;;;;11.68;10.48;;;;;;;22.58;63.64;99664.63;4972225;28;20421;-79
2023/06/21 05:24:39;;;;;;;14.30;11.13;;;;;;;22.60;63.66;99677.88;4954904;28;20061;-79
2023/06/21 05:27:06;;;;;;;13.57;11.32;;;;;;;22.62;63.99;99682.06;4989865;28;20064;-79
2023/06/21 05:29:34;;;;;;;12.25;9.88;;;;;;;22.64;64.34;99672.00;4974509;28;20113;-79
2023/06/21 05:32:01;;;;;;;12.52;11.30;;;;;;;22.68;64.36;99685.09;4992903;28;20065;-78
2023/06/21 05:34:28;;;;;;;12.35;11.15;;;;;;;22.70;64.30;99689.28;4995692;28;20058;-79
2023/06/21 05:36:55;;;;;;;13.90;11.65;;;;;;;22.73;64.45;99696.16;4980993;28;20077;-79
2023/06/21 05:39:21;;;;;;;13.23;11.93;;;;;;;22.77;64.14;99694.81;4975992;28;20063;-79
2023/06/21 05:41:47;;;;;;;14.00;11.88;;;;;;;22.82;64.23;99696.97;4975955;28;20054;-79
2023/06/21 05:44:14;;;;;;;15.27;10.80;;;;;;;22.86;63.94;99699.16;4976045;28;20062;-78
2023/06/21 05:46:40;;;;;;;12.52;11.25;;;;;;;22.89;63.96;99696.16;4984446;28;20062;-79
2023/06/21 05:49:07;;;;;;;13.48;11.82;;;;;;;22.93;63.67;99699.31;4995345;28;20137;-79
2023/06/21 05:51:33;;;;;;;13.00;11.73;;;;;;;22.97;63.55;99695.28;4977695;28;20050;-78
2023/06/21 05:53:59;;;;;;;12.25;11.05;;;;;;;22.99;63.31;99698.63;4995239;28;20054;-79
2023/06/21 05:56:27;;;;;;;12.23;10.95;;;;;;;23.00;63.63;99694.97;4990459;28;20058;-79
2023/06/21 05:58:53;;;;;;;12.65;11.20;;;;;;;23.02;63.15;99703.66;4983182;28;20057;-79
2023/06/21 06:01:20;;;;;;;12.48;11.18;;;;;;;23.05;63.42;99707.84;4983790;28;20059;-80
2023/06/21 06:03:50;;;;;;;13.80;11.48;;;;;;;23.07;62.66;99705.00;4970801;28;20057;-79
2023/06/21 06:06:17;;;;;;;13.23;11.80;;;;;;;23.10;63.04;99713.53;4994734;28;20513;-79
2023/06/21 06:08:44;;;;;;;13.40;11.95;;;;;;;23.13;62.81;99720.41;4994455;28;20061;-79
2023/06/21 06:11:10;;;;;;;12.75;11.52;;;;;;;23.16;62.88;99725.44;4994184;28;20397;-79
2023/06/21 06:13:37;;;;;;;12.43;11.23;;;;;;;23.20;63.15;99731.31;5046285;23;20711;-79
2023/06/21 06:16:03;;;;;;;12.43;11.13;;;;;;;23.23;63.06;99734.50;4995252;28;20054;-80
2023/06/21 06:18:30;;;;;;;13.23;11.90;;;;;;;23.28;63.11;99733.97;4994292;28;20065;-79
2023/06/21 06:20:57;;;;;;;12.88;11.38;;;;;;;23.33;62.86;99733.47;4995446;28;20077;-78
2023/06/21 06:23:23;;;;;;;12.23;11.02;;;;;;;23.37;62.30;99734.84;4994664;28;20050;-80
2023/06/21 06:25:51;;;;;;;13.32;11.52;;;;;;;23.41;62.34;99733.47;4994687;28;20059;-79
2023/06/21 06:28:19;;;;;;;12.73;11.52;;;;;;;23.46;61.92;99741.00;4994857;28;20054;-78
2023/06/21 06:30:45;;;;;;;12.20;11.00;;;;;;;23.49;61.98;99743.34;4994396;28;20067;-78
2023/06/21 06:33:12;;;;;;;12.30;11.10;;;;;;;23.51;62.03;99755.59;4994682;28;20054;-79
2023/06/21 06:35:42;;;;;;;12.73;11.10;;;;;;;23.52;61.73;99762.66;4959253;28;20106;-79
2023/06/21 06:38:08;;;;;;;14.48;11.63;;;;;;;23.55;61.73;99759.63;4974789;28;20046;-79
2023/06/21 06:40:35;;;;;;;13.95;12.55;;;;;;;23.56;61.50;99766.66;4974887;28;20062;-79
2023/06/21 06:43:02;;;;;;;15.70;13.50;;;;;;;23.56;61.41;99765.84;4973991;28;20515;-79
2023/06/21 06:45:29;;;;;;;16.05;14.50;;;;;;;23.57;61.28;99767.50;4969516;28;20080;-78
2023/06/21 06:47:56;;;;;;;15.13;13.68;;;;;;;23.57;61.12;99770.19;4994265;28;20065;-79
2023/06/21 06:50:22;;;;;;;15.90;14.27;;;;;;;23.59;61.55;99783.47;4994539;28;20062;-78
2023/06/21 06:52:49;;;;;;;15.48;13.98;;;;;;;23.64;61.73;99797.22;4994807;28;20411;-78
2023/06/21 06:55:16;;;;;;;14.40;13.02;;;;;;;23.66;61.66;99779.91;4993947;28;20061;-79
2023/06/21 06:57:42;;;;;;;15.02;13.50;;;;;;;23.71;61.47;99783.94;4994138;28;20410;-78
2023/06/21 07:00:29;;;;;;;13.20;11.90;;;;;;;23.79;61.62;99781.22;4985577;28;20584;-77
2023/06/21 07:02:57;;;;;;;14.43;13.02;;;;;;;23.85;61.69;99785.06;4976115;28;20138;-80
2023/06/21 07:05:24;;;;;;;13.43;12.23;;;;;;;23.89;61.15;99783.69;4992265;28;20054;-79
2023/06/21 07:08:16;;;;;;;14.48;13.07;;;;;;;23.92;60.07;99786.88;4965664;28;20042;-79
2023/06/21 07:10:43;;;;;;;14.07;12.73;;;;;;;24.00;60.22;99796.75;4982696;28;20053;-79
2023/06/21 07:13:10;;;;;;;13.90;12.50;;;;;;;24.04;60.45;99802.63;4984640;28;20133;-79
2023/06/21 07:15:36;;;;;;;12.80;11.40;;;;;;;24.08;59.87;99807.47;4986421;28;20058;-79
2023/06/21 07:18:03;;;;;;;12.88;11.32;;;;;;;24.12;59.83;99793.69;4987272;28;20558;-80
2023/06/21 07:20:31;;;;;;;12.30;11.15;;;;;;;24.16;59.46;99795.03;4976718;28;20058;-79
2023/06/21 07:22:58;;;;;;;12.60;11.35;;;;;;;24.20;59.49;99799.91;4984045;28;20053;-79
2023/06/21 07:25:25;;;;;;;13.45;12.07;;;;;;;24.26;59.69;99809.09;4983561;28;20101;-79
2023/06/21 07:27:52;;;;;;;12.35;11.05;;;;;;;24.30;59.15;99806.91;4982659;28;20046;-79
2023/06/21 07:30:20;;;;;;;12.10;10.90;;;;;;;24.34;58.37;99819.81;4986765;28;20089;-80
2023/06/21 07:32:47;;;;;;;12.30;11.00;;;;;;;24.38;58.47;99820.31;4968363;28;20050;-78
2023/06/21 07:35:15;;;;;;;11.27;10.25;;;;;;;24.42;59.14;99832.38;4983962;28;20054;-79
2023/06/21 07:37:43;;;;;;;11.48;10.40;;;;;;;24.47;58.68;99831.84;4992480;28;20125;-79
2023/06/21 07:40:11;;;;;;;12.07;10.30;;;;;;;24.51;58.86;99829.66;4976018;28;20062;-81
2023/06/21 07:42:38;;;;;;;11.75;10.55;;;;;;;24.57;59.11;99824.41;4993507;28;20081;-79
2023/06/21 07:45:07;;;;;;;12.50;11.20;;;;;;;24.64;58.26;99831.75;4976172;28;20105;-79
2023/06/21 07:47:34;;;;;;;12.00;10.70;;;;;;;24.67;58.03;99828.72;4993251;28;20443;-79
2023/06/21 07:50:01;;;;;;;12.48;11.18;;;;;;;24.72;58.35;99826.31;4993484;28;20054;-78
2023/06/21 07:52:47;;;;;;;11.38;10.27;;;;;;;24.77;58.06;99825.75;4990296;28;20058;-79
2023/06/21 07:55:13;;;;;;;12.15;10.95;;;;;;;24.82;57.98;99826.91;4973350;28;20062;-79
2023/06/21 07:57:40;;;;;;;13.45;12.15;;;;;;;24.87;57.64;99829.09;4973794;28;20047;-80
2023/06/21 08:00:13;;;;;;;11.55;10.45;;;;;;;24.91;57.43;99826.88;4974714;28;20415;-80
2023/06/21 08:02:42;;;;;;;;;;;;;;;24.94;58.23;99831.91;4972902;28;20428;-80
2023/06/21 08:05:09;;;;;;;10.57;9.57;;;;;;;25.06;57.27;99824.22;4972009;28;19922;-79
2023/06/21 08:07:36;;;;;;;11.57;10.48;;;;;;;25.10;57.62;99828.22;4971993;28;20109;-81
2023/06/21 08:10:02;;;;;;;14.23;12.00;;;;;;;25.14;57.02;99836.78;4990131;28;20108;-79
2023/06/21 08:12:29;;;;;;;13.95;12.00;;;;;;;25.19;57.23;99826.31;4991144;28;20054;-80
2023/06/21 08:14:56;;;;;;;13.23;11.95;;;;;;;25.25;57.65;99828.28;4992000;28;20067;-81
2023/06/21 08:17:22;;;;;;;13.07;11.82;;;;;;;25.35;57.50;99830.72;4991960;28;20054;-81
2023/06/21 08:19:49;;;;;;;13.07;11.93;;;;;;;25.45;56.58;99830.47;4993015;28;20054;-80
2023/06/21 08:22:16;;;;;;;13.70;12.50;;;;;;;25.54;55.83;99834.75;4992917;28;20065;-81
2023/06/21 08:24:42;;;;;;;14.90;13.32;;;;;;;25.61;55.95;99830.28;4992618;28;20057;-80
2023/06/21 08:27:09;;;;;;;13.98;12.68;;;;;;;25.68;55.37;99838.47;4978063;28;20545;-80
2023/06/21 08:29:35;;;;;;;14.75;13.20;;;;;;;25.75;55.40;99852.06;4973132;28;20058;-81
2023/06/21 08:32:04;;;;;;;14.40;13.02;;;;;;;25.81;55.36;99854.03;4973114;28;20587;-81
2023/06/21 08:34:31;;;;;;;14.73;13.43;;;;;;;25.87;55.54;99850.56;4973189;28;20067;-81
2023/06/21 08:36:58;;;;;;;14.73;13.32;;;;;;;25.94;55.04;99856.06;4973001;28;20054;-81
2023/06/21 08:39:25;;;;;;;14.75;13.38;;;;;;;26.00;55.11;99855.31;4973060;28;20078;-82
2023/06/21 08:41:54;;;;;;;14.35;12.95;;;;;;;26.06;54.78;99864.53;4972890;28;20404;-80
2023/06/21 08:44:21;;;;;;;14.20;12.90;;;;;;;26.13;54.68;99872.72;4984955;28;20063;-80
2023/06/21 08:46:49;;;;;;;13.57;12.38;;;;;;;26.19;54.04;99874.66;4989995;28;20113;-81
2023/06/21 08:49:18;;;;;;;12.35;11.15;;;;;;;26.26;53.61;99875.63;4974644;28;20404;-80
2023/06/21 08:51:46;;;;;;;13.20;12.05;;;;;;;26.33;53.43;99862.19;4989926;28;20054;-78
2023/06/21 08:54:15;;;;;;;11.85;10.77;;;;;;;26.39;52.92;99866.00;4984967;28;20066;-79
2023/06/21 08:56:55;;;;;;;11.98;10.77;;;;;;;26.43;53.56;99872.72;4974082;28;20057;-79
2023/06/21 08:59:30;;;;;;;14.00;12.70;;;;;;;26.54;53.29;99868.69;4975231;28;20062;-81
2023/06/21 09:02:15;;;;;;;12.95;11.77;;;;;;;26.62;53.40;99873.13;4970491;28;20055;-79
2023/06/21 09:04:48;;;;;;;12.70;11.52;;;;;;;26.74;52.74;99876.16;4989657;28;20054;-81
2023/06/21 09:07:15;;;;;;;12.30;11.20;;;;;;;26.85;52.36;99881.06;4988699;28;20065;-78
2023/06/21 09:09:44;;;;;;;12.43;11.25;;;;;;;26.90;53.36;99881.31;4984789;28;20060;-80
2023/06/21 09:12:13;;;;;;;14.38;13.05;;;;;;;26.97;52.37;99875.16;4980269;28;20086;-78
2023/06/21 09:14:40;;;;;;;13.20;12.05;;;;;;;27.05;51.98;99878.56;4975448;28;20410;-80
2023/06/21 09:17:07;;;;;;;12.52;11.23;;;;;;;27.13;51.90;99877.59;4980797;28;20107;-80
2023/06/21 09:19:35;;;;;;;12.88;11.68;;;;;;;27.22;52.77;99877.47;4985199;28;20061;-79
2023/06/21 09:22:05;;;;;;;12.20;11.10;;;;;;;27.30;51.57;99880.88;4981331;28;20050;-80
2023/06/21 09:24:32;;;;;;;13.10;11.90;;;;;;;27.40;52.14;99885.94;4982369;28;20408;-79
2023/06/21 09:26:59;;;;;;;13.50;12.30;;;;;;;27.52;51.52;99890.81;4982789;28;20519;-79
2023/06/21 09:29:26;;;;;;;14.07;12.77;;;;;;;27.66;51.73;99894.50;4979556;28;20412;-79
2023/06/21 09:31:52;;;;;;;12.75;11.65;;;;;;;27.80;51.25;99900.81;4980959;28;20050;-80
2023/06/21 09:34:19;;;;;;;13.43;12.13;;;;;;;27.93;50.45;99892.78;4985001;28;20079;-79
2023/06/21 09:36:45;;;;;;;12.90;11.70;;;;;;;28.05;49.56;99890.34;4980314;28;20050;-80
2023/06/21 09:39:12;;;;;;;14.82;13.43;;;;;;;28.15;49.74;99886.44;4982261;28;20122;-80
2023/06/21 09:41:41;;;;;;;13.80;12.52;;;;;;;28.22;49.68;99885.44;4981303;28;20050;-79
2023/06/21 09:44:08;;;;;;;12.95;11.40;;;;;;;28.31;49.86;99882.59;4979125;28;20087;-80
2023/06/21 09:46:35;;;;;;;14.10;12.82;;;;;;;28.43;48.87;99885.53;4971449;28;20062;-79
2023/06/21 09:49:10;;;;;;;12.57;11.48;;;;;;;28.52;48.13;99892.44;4971935;28;20114;-80
2023/06/21 09:51:45;;;;;;;12.57;11.35;;;;;;;28.63;47.25;99888.31;4971833;28;20830;-80
2023/06/21 09:54:12;;;;;;;12.73;11.60;;;;;;;28.71;47.68;99890.84;4970757;28;20067;-79
2023/06/21 09:56:39;;;;;;;14.15;12.85;;;;;;;28.75;47.48;99885.88;4971596;28;20055;-79
2023/06/21 09:59:16;;;;;;;12.55;11.25;;;;;;;28.73;47.00;99893.34;4973268;28;20065;-80
2023/06/21 10:01:47;;;;;;;13.13;11.93;;;;;;;28.81;47.76;99889.63;4954594;28;20117;-79
2023/06/21 10:04:16;;;;;;;11.80;10.80;;;;;;;28.84;47.56;99889.19;4971896;28;20412;-79
2023/06/21 10:06:50;;;;;;;11.00;10.05;;;;;;;28.87;46.85;99899.63;4971716;28;20460;-79
2023/06/21 10:09:17;;;;;;;11.13;10.07;;;;;;;28.95;46.99;99899.47;4971721;28;20058;-81
2023/06/21 10:11:44;;;;;;;9.63;8.82;;;;;;;28.98;46.87;99896.38;4971787;28;20059;-79
2023/06/21 10:14:26;;;;;;;8.82;8.07;;;;;;;28.96;46.22;99890.31;4971471;28;20050;-80
2023/06/21 10:16:53;;;;;;;;;;;;;;;29.02;48.11;99896.78;4976532;28;20141;-80
2023/06/21 10:19:23;;;;;;;10.63;9.73;;;;;;;29.13;46.81;99893.47;4984088;28;19922;-80
2023/06/21 10:21:58;;;;;;;10.38;9.48;;;;;;;29.17;46.42;99896.59;4975361;28;20423;-79
2023/06/21 10:24:32;;;;;;;9.70;8.82;;;;;;;29.23;46.18;99894.94;4974911;28;20070;-78
2023/06/21 10:26:59;;;;;;;10.82;9.82;;;;;;;29.32;46.33;99898.25;4977553;28;20150;-79
2023/06/21 10:29:27;;;;;;;11.00;10.00;;;;;;;29.42;46.42;99898.69;4977464;28;20058;-78
2023/06/21 10:31:57;;;;;;;9.15;8.32;;;;;;;29.57;45.79;99903.94;4994252;28;20078;-79
2023/06/21 10:34:27;;;;;;;9.50;8.70;;;;;;;29.70;45.57;99896.78;4994587;28;20050;-78
2023/06/21 10:37:06;;;;;;;9.50;8.60;;;;;;;29.85;46.03;99901.97;4994058;28;20065;-80
2023/06/21 10:39:34;;;;;;;9.63;8.75;;;;;;;30.03;45.98;99912.19;4977376;28;20059;-78
2023/06/21 10:42:02;;;;;;;9.50;8.50;;;;;;;30.19;45.81;99900.06;4994062;28;20062;-79
2023/06/21 10:44:29;;;;;;;9.55;8.75;;;;;;;30.34;45.08;99901.69;4993240;28;20085;-79
2023/06/21 10:46:59;;;;;;;9.05;8.25;;;;;;;30.43;43.36;99911.25;4993907;28;20055;-80
2023/06/21 10:49:28;;;;;;;8.77;7.97;;;;;;;30.47;42.77;99904.34;4994271;28;20057;-79
2023/06/21 10:51:56;;;;;;;8.30;7.38;;;;;;;30.48;43.73;99911.44;4994159;28;20058;-80
2023/06/21 10:54:25;;;;;;;7.28;6.68;;;;;;;30.55;43.79;99909.53;4994247;28;20055;-80
2023/06/21 10:56:53;;;;;;;7.60;6.90;;;;;;;30.71;43.53;99912.78;4993890;28;20554;-79
2023/06/21 10:59:23;;;;;;;6.30;5.80;;;;;;;30.87;42.71;99921.50;4993983;28;20138;-79
2023/06/21 11:01:51;;;;;;;7.32;5.75;;;;;;;31.03;43.11;99921.00;4975039;28;20054;-79
2023/06/21 11:04:18;;;;;;;7.28;6.38;;;;;;;31.21;42.60;99930.28;4993927;28;20054;-79
2023/06/21 11:06:45;;;;;;;6.50;5.97;;;;;;;31.40;42.75;99924.94;4976555;28;20522;-79
2023/06/21 11:09:16;;;;;;;6.50;5.90;;;;;;;31.67;41.61;99930.13;4993606;28;20507;-79
2023/06/21 11:11:51;;;;;;;6.68;5.97;;;;;;;31.96;40.54;99934.03;4993777;28;20540;-79
2023/06/21 11:14:31;;;;;;;5.97;5.47;;;;;;;32.26;41.26;99937.09;4993836;28;20066;-78
2023/06/21 11:17:15;;;;;;;5.25;4.85;;;;;;;32.50;39.80;99946.25;4991520;28;20058;-80
2023/06/21 11:19:47;;;;;;;5.75;5.25;;;;;;;32.72;40.02;99934.88;4993714;28;20057;-80
2023/06/21 11:22:15;;;;;;;;;;;;;;;32.92;43.13;99939.22;4994071;28;20090;-80
2023/06/21 11:25:00;;;;;;;5.07;4.68;;;;;;;33.30;41.21;99940.75;4993606;28;20016;-80
2023/06/21 11:27:27;;;;;;;4.82;4.43;;;;;;;33.66;40.54;99938.94;4993710;28;20050;-79
2023/06/21 11:30:09;;;;;;;4.18;3.88;;;;;;;33.91;37.42;99946.03;4992974;28;20146;-79